createdAt,value
2024-03-29T00:00:15.928Z,75.15
2024-03-29T00:01:15.811Z,75.25
2024-03-29T00:02:16.174Z,75.45
2024-03-29T00:03:15.796Z,75.35
2024-03-29T00:04:15.797Z,75.15
2024-03-29T00:05:15.768Z,75.25
2024-03-29T00:06:15.883Z,75.35
2024-03-29T00:07:15.749Z,75.45
2024-03-29T00:08:15.752Z,75.56
2024-03-29T00:09:15.725Z,75.56
2024-03-29T00:10:15.724Z,75.45
2024-03-29T00:11:15.706Z,75.25
2024-03-29T00:12:15.728Z,75.25
2024-03-29T00:13:15.694Z,75.04
2024-03-29T00:14:16.051Z,75.25
2024-03-29T00:15:15.684Z,75.35
2024-03-29T00:16:15.665Z,75.25
2024-03-29T00:17:15.645Z,75.45
2024-03-29T00:18:15.672Z,75.45
2024-03-29T00:19:15.620Z,75.56
2024-03-29T00:20:15.621Z,75.56
2024-03-29T00:21:15.894Z,75.80
2024-03-29T00:22:15.594Z,76.00
2024-03-29T00:23:15.582Z,76.31
2024-03-29T00:24:15.598Z,76.42
2024-03-29T00:25:15.558Z,76.21
2024-03-29T00:26:15.569Z,76.42
2024-03-29T00:27:15.538Z,76.51
2024-03-29T00:28:15.938Z,76.51
2024-03-29T00:29:15.525Z,76.62
2024-03-29T00:30:15.549Z,76.86
2024-03-29T00:31:15.502Z,76.76
2024-03-29T00:32:15.483Z,76.97
2024-03-29T00:33:15.468Z,77.06
2024-03-29T00:34:15.469Z,77.27
2024-03-29T00:35:15.782Z,77.58
2024-03-29T00:36:15.514Z,77.58
2024-03-29T00:37:15.448Z,77.68
2024-03-29T00:38:15.435Z,77.68
2024-03-29T00:39:15.410Z,77.78
2024-03-29T00:40:15.411Z,77.78
2024-03-29T00:41:15.393Z,77.89
2024-03-29T00:42:15.874Z,78.03
2024-03-29T00:43:15.368Z,78.03
2024-03-29T00:44:15.394Z,78.13
2024-03-29T00:45:28.422Z,78.44
2024-03-29T00:46:15.338Z,78.54
2024-03-29T00:47:15.330Z,78.75
2024-03-29T00:48:15.363Z,78.85
2024-03-29T00:49:16.719Z,78.85
2024-03-29T00:50:15.320Z,78.54
2024-03-29T00:51:15.281Z,78.64
2024-03-29T00:52:15.302Z,78.75
2024-03-29T00:53:15.258Z,78.64
2024-03-29T00:54:15.349Z,78.64
2024-03-29T00:55:15.249Z,78.75
2024-03-29T00:56:15.259Z,78.64
2024-03-29T00:57:15.228Z,78.64
2024-03-29T00:58:15.214Z,78.64
2024-03-29T00:59:15.194Z,78.54
2024-03-29T01:00:15.264Z,78.64
2024-03-29T01:01:15.171Z,78.75
2024-03-29T01:02:15.551Z,78.75
2024-03-29T01:03:15.195Z,78.54
2024-03-29T01:04:15.154Z,78.44
2024-03-29T01:05:15.130Z,78.44
2024-03-29T01:06:15.180Z,78.44
2024-03-29T01:07:15.107Z,78.54
2024-03-29T01:08:15.116Z,78.33
2024-03-29T01:09:15.396Z,78.44
2024-03-29T01:10:15.083Z,78.23
2024-03-29T01:11:15.080Z,78.23
2024-03-29T01:12:15.089Z,78.03
2024-03-29T01:13:15.046Z,77.92
2024-03-29T01:14:15.052Z,78.03
2024-03-29T01:15:15.027Z,78.03
2024-03-29T01:16:15.317Z,78.03
2024-03-29T01:17:15.006Z,78.03
2024-03-29T01:18:15.058Z,78.03
2024-03-29T01:19:15.002Z,78.13
2024-03-29T01:20:14.985Z,78.13
2024-03-29T01:21:14.971Z,78.13
2024-03-29T01:22:14.953Z,77.92
2024-03-29T01:23:15.223Z,78.03
2024-03-29T01:24:15.016Z,77.92
2024-03-29T01:25:14.922Z,77.92
2024-03-29T01:26:14.924Z,78.03
2024-03-29T01:27:14.907Z,77.72
2024-03-29T01:28:14.897Z,77.82
2024-03-29T01:29:14.884Z,77.82
2024-03-29T01:30:15.236Z,77.92
2024-03-29T01:31:14.858Z,77.82
2024-03-29T01:32:14.863Z,77.82
2024-03-29T01:33:14.836Z,77.92
2024-03-29T01:34:14.839Z,78.03
2024-03-29T01:35:14.816Z,78.03
2024-03-29T01:36:14.871Z,77.82
2024-03-29T01:37:15.086Z,77.82
2024-03-29T01:38:14.792Z,77.92
2024-03-29T01:39:17.054Z,77.92
2024-03-29T01:40:14.761Z,77.82
2024-03-29T01:41:14.752Z,77.92
2024-03-29T01:42:14.827Z,77.92
2024-03-29T01:43:14.735Z,77.92
2024-03-29T01:44:15.022Z,77.92
2024-03-29T01:45:14.711Z,78.03
2024-03-29T01:46:14.699Z,77.92
2024-03-29T01:47:14.713Z,78.13
2024-03-29T01:48:14.761Z,78.03
2024-03-29T01:49:14.667Z,78.17
2024-03-29T01:50:14.656Z,78.03
2024-03-29T01:51:14.965Z,77.92
2024-03-29T01:52:14.638Z,77.92
2024-03-29T01:53:14.634Z,77.92
2024-03-29T01:54:14.671Z,78.03
2024-03-29T01:55:14.603Z,78.13
2024-03-29T01:56:14.589Z,78.13
2024-03-29T01:57:14.584Z,78.06
2024-03-29T01:58:14.840Z,77.92
2024-03-29T01:59:14.579Z,78.03
2024-03-29T02:00:14.601Z,77.82
2024-03-29T02:01:14.540Z,77.72
2024-03-29T02:02:14.550Z,77.92
2024-03-29T02:03:14.522Z,78.03
2024-03-29T02:04:14.533Z,78.17
2024-03-29T02:05:14.513Z,77.92
2024-03-29T02:06:14.541Z,77.96
2024-03-29T02:07:14.481Z,77.82
2024-03-29T02:08:14.494Z,77.92
2024-03-29T02:09:14.455Z,78.17
2024-03-29T02:10:14.489Z,78.17
2024-03-29T02:11:14.724Z,78.17
2024-03-29T02:12:14.477Z,78.06
2024-03-29T02:13:14.416Z,78.06
2024-03-29T02:14:14.396Z,78.27
2024-03-29T02:15:14.394Z,78.47
2024-03-29T02:16:14.374Z,78.68
2024-03-29T02:17:14.670Z,78.47
2024-03-29T02:18:14.415Z,78.47
2024-03-29T02:19:14.345Z,78.37
2024-03-29T02:20:29.805Z,78.47
2024-03-29T02:21:14.332Z,78.06
2024-03-29T02:22:14.320Z,78.17
2024-03-29T02:23:14.300Z,78.06
2024-03-29T02:24:14.319Z,78.17
2024-03-29T02:25:14.300Z,78.27
2024-03-29T02:26:14.284Z,78.17
2024-03-29T02:27:14.270Z,78.47
2024-03-29T02:28:14.245Z,78.58
2024-03-29T02:29:14.558Z,78.78
2024-03-29T02:30:14.301Z,78.89
2024-03-29T02:31:14.225Z,78.89
2024-03-29T02:32:14.203Z,79.13
2024-03-29T02:33:14.202Z,79.23
2024-03-29T02:34:14.199Z,79.23
2024-03-29T02:35:14.177Z,79.13
2024-03-29T02:36:14.517Z,78.99
2024-03-29T02:37:14.165Z,78.89
2024-03-29T02:38:14.137Z,78.58
2024-03-29T02:39:14.146Z,78.37
2024-03-29T02:40:14.125Z,78.17
2024-03-29T02:41:14.125Z,77.96
2024-03-29T02:42:14.182Z,77.86
2024-03-29T02:43:14.398Z,77.92
2024-03-29T02:44:14.087Z,77.62
2024-03-29T02:45:14.075Z,77.31
2024-03-29T02:46:14.054Z,77.20
2024-03-29T02:47:14.056Z,77.41
2024-03-29T02:48:14.149Z,77.31
2024-03-29T02:49:14.026Z,76.90
2024-03-29T02:50:14.315Z,76.90
2024-03-29T02:51:14.007Z,77.10
2024-03-29T02:52:14.008Z,77.00
2024-03-29T02:53:13.986Z,77.10
2024-03-29T02:54:14.022Z,76.90
2024-03-29T02:55:13.966Z,76.90
2024-03-29T02:56:13.946Z,77.00
2024-03-29T02:57:14.234Z,77.10
2024-03-29T02:58:13.945Z,77.10
2024-03-29T02:59:13.925Z,77.10
2024-03-29T03:00:13.989Z,76.90
2024-03-29T03:01:13.926Z,76.90
2024-03-29T03:02:13.968Z,76.79
2024-03-29T03:03:13.924Z,76.55
2024-03-29T03:04:14.155Z,76.55
2024-03-29T03:05:13.932Z,76.45
2024-03-29T03:06:13.983Z,76.45
2024-03-29T03:07:13.842Z,75.93
2024-03-29T03:08:13.829Z,75.83
2024-03-29T03:09:13.821Z,75.63
2024-03-29T03:10:13.830Z,75.63
2024-03-29T03:11:14.153Z,75.63
2024-03-29T03:12:13.848Z,75.83
2024-03-29T03:13:13.779Z,75.63
2024-03-29T03:14:13.757Z,75.38
2024-03-29T03:15:13.752Z,75.08
2024-03-29T03:16:13.741Z,75.08
2024-03-29T03:17:13.789Z,75.08
2024-03-29T03:18:14.062Z,74.87
2024-03-29T03:19:13.727Z,74.57
2024-03-29T03:20:13.695Z,74.67
2024-03-29T03:21:13.697Z,74.36
2024-03-29T03:22:13.682Z,74.02
2024-03-29T03:23:13.671Z,74.02
2024-03-29T03:24:13.705Z,73.81
2024-03-29T03:25:13.938Z,73.91
2024-03-29T03:26:13.654Z,73.50
2024-03-29T03:27:13.629Z,73.30
2024-03-29T03:28:13.611Z,72.85
2024-03-29T03:29:13.615Z,72.85
2024-03-29T03:30:13.652Z,72.75
2024-03-29T03:31:13.585Z,72.34
2024-03-29T03:32:13.887Z,72.24
2024-03-29T03:33:13.564Z,72.14
2024-03-29T03:34:13.552Z,71.69
2024-03-29T03:35:13.550Z,71.69
2024-03-29T03:36:13.562Z,71.48
2024-03-29T03:37:13.525Z,71.48
2024-03-29T03:38:13.517Z,71.39
2024-03-29T03:39:13.771Z,71.28
2024-03-29T03:40:13.500Z,70.87
2024-03-29T03:41:13.470Z,70.53
2024-03-29T03:42:13.533Z,70.22
2024-03-29T03:43:13.452Z,70.12
2024-03-29T03:44:13.437Z,70.22
2024-03-29T03:45:13.441Z,70.32
2024-03-29T03:46:13.704Z,70.53
2024-03-29T03:47:13.407Z,70.53
2024-03-29T03:48:13.497Z,70.53
2024-03-29T03:49:13.389Z,70.32
2024-03-29T03:50:13.380Z,70.32
2024-03-29T03:51:13.374Z,70.32
2024-03-29T03:52:13.355Z,70.12
2024-03-29T03:53:13.651Z,70.53
2024-03-29T03:54:13.425Z,70.53
2024-03-29T03:55:13.321Z,70.53
2024-03-29T03:56:13.304Z,70.73
2024-03-29T03:57:13.307Z,70.77
2024-03-29T03:58:13.289Z,70.87
2024-03-29T03:59:13.286Z,70.77
2024-03-29T04:00:15.022Z,70.94
2024-03-29T04:01:13.270Z,70.97
2024-03-29T04:02:13.263Z,70.84
2024-03-29T04:03:13.254Z,70.73
2024-03-29T04:04:13.220Z,70.32
2024-03-29T04:05:13.216Z,70.22
2024-03-29T04:06:13.254Z,70.12
2024-03-29T04:07:13.485Z,70.32
2024-03-29T04:08:13.179Z,70.64
2024-03-29T04:09:13.174Z,70.84
2024-03-29T04:10:13.159Z,71.04
2024-03-29T04:11:13.166Z,71.25
2024-03-29T04:12:13.193Z,71.45
2024-03-29T04:13:13.135Z,71.25
2024-03-29T04:14:13.428Z,71.45
2024-03-29T04:15:13.136Z,71.66
2024-03-29T04:16:13.103Z,71.90
2024-03-29T04:17:13.177Z,72.10
2024-03-29T04:18:13.136Z,72.10
2024-03-29T04:19:13.063Z,72.41
2024-03-29T04:20:13.076Z,72.51
2024-03-29T04:21:13.322Z,72.41
2024-03-29T04:22:13.029Z,72.61
2024-03-29T04:23:13.067Z,72.58
2024-03-29T04:24:13.100Z,72.89
2024-03-29T04:25:13.010Z,72.89
2024-03-29T04:26:13.002Z,73.61
2024-03-29T04:27:12.977Z,73.95
2024-03-29T04:28:13.288Z,74.26
2024-03-29T04:29:12.959Z,74.66
2024-03-29T04:30:13.014Z,74.57
2024-03-29T04:31:12.945Z,75.18
2024-03-29T04:32:12.934Z,75.28
2024-03-29T04:33:12.912Z,75.49
2024-03-29T04:34:12.932Z,76.31
2024-03-29T04:35:13.205Z,77.13
2024-03-29T04:36:12.946Z,77.58
2024-03-29T04:37:12.884Z,76.82
2024-03-29T04:38:12.950Z,76.82
2024-03-29T04:39:12.852Z,77.78
2024-03-29T04:40:40.588Z,78.29
2024-03-29T04:42:28.190Z,77.26
2024-03-29T04:43:29.181Z,77.98
2024-03-29T04:44:29.158Z,79.73
2024-03-29T04:45:29.155Z,79.93
2024-03-29T04:46:29.135Z,79.93
2024-03-29T04:47:29.167Z,79.56
2024-03-29T04:48:29.383Z,81.10
2024-03-29T04:49:29.090Z,80.07
2024-03-29T04:50:29.078Z,82.13
2024-03-29T04:51:29.127Z,82.84
2024-03-29T04:52:29.064Z,81.71
2024-03-29T04:53:29.169Z,82.84
2024-03-29T04:54:29.045Z,81.62
2024-03-29T04:55:29.026Z,83.26
2024-03-29T04:56:29.016Z,84.18
2024-03-29T04:57:29.016Z,83.50
2024-03-29T04:58:28.996Z,84.53
2024-03-29T04:59:29.090Z,84.42
2024-03-29T05:00:29.278Z,84.12
2024-03-29T05:01:28.961Z,84.32
2024-03-29T05:02:28.960Z,83.91
2024-03-29T05:03:28.943Z,84.01
2024-03-29T05:04:28.926Z,85.25
2024-03-29T05:05:28.969Z,85.14
2024-03-29T05:06:28.922Z,85.76
2024-03-29T05:07:29.182Z,86.58
2024-03-29T05:08:28.885Z,87.61
2024-03-29T05:09:28.874Z,87.75
2024-03-29T05:10:28.864Z,88.37
2024-03-29T05:11:28.905Z,89.60
2024-03-29T05:12:28.839Z,90.12
2024-03-29T05:13:28.835Z,90.78
2024-03-29T05:14:29.120Z,90.26
2024-03-29T05:15:28.812Z,90.36
2024-03-29T05:16:28.807Z,90.88
2024-03-29T05:17:28.855Z,91.60
2024-03-29T05:18:28.783Z,92.63
2024-03-29T05:19:28.771Z,93.04
2024-03-29T05:20:28.770Z,93.18
2024-03-29T05:21:29.043Z,94.11
2024-03-29T05:22:28.747Z,94.31
2024-03-29T05:23:28.787Z,94.62
2024-03-29T05:24:28.718Z,94.93
2024-03-29T05:25:28.723Z,95.75
2024-03-29T05:26:28.697Z,96.06
2024-03-29T05:27:28.693Z,96.68
2024-03-29T05:28:28.953Z,97.65
2024-03-29T05:29:28.723Z,97.55
2024-03-29T05:30:28.652Z,98.27
2024-03-29T05:31:28.648Z,98.16
2024-03-29T05:32:28.665Z,98.37
2024-03-29T05:33:28.622Z,99.19
2024-03-29T05:34:28.627Z,98.99
2024-03-29T05:35:28.954Z,99.91
2024-03-29T05:36:28.602Z,99.99
2024-03-29T05:37:28.584Z,99.91
2024-03-29T05:38:28.583Z,99.99
2024-03-29T05:39:28.565Z,99.99
2024-03-29T05:40:28.552Z,99.99
2024-03-29T05:41:28.597Z,99.99
2024-03-29T05:42:28.828Z,99.99
2024-03-29T05:43:28.517Z,99.99
2024-03-29T05:44:28.539Z,99.99
2024-03-29T05:45:28.495Z,99.99
2024-03-29T05:46:28.488Z,99.99
2024-03-29T05:47:28.564Z,99.99
2024-03-29T05:48:28.463Z,99.99
2024-03-29T05:49:28.739Z,99.99
2024-03-29T05:50:28.443Z,99.99
2024-03-29T05:51:28.431Z,99.99
2024-03-29T05:52:28.442Z,99.99
2024-03-29T05:53:28.448Z,99.99
2024-03-29T05:54:28.396Z,99.99
2024-03-29T05:55:28.395Z,99.99
2024-03-29T05:56:28.672Z,99.99
2024-03-29T05:57:28.378Z,99.99
2024-03-29T05:58:28.355Z,99.99
2024-03-29T05:59:28.727Z,99.99
2024-03-29T06:00:28.362Z,99.99
2024-03-29T06:01:28.334Z,99.99
2024-03-29T06:02:28.323Z,99.99
2024-03-29T06:03:28.614Z,99.99
2024-03-29T06:04:30.012Z,99.99
2024-03-29T06:05:28.395Z,99.99
2024-03-29T06:06:28.281Z,99.99
2024-03-29T06:07:28.270Z,99.99
2024-03-29T06:08:28.264Z,99.99
2024-03-29T06:09:28.265Z,99.99
2024-03-29T06:10:28.513Z,99.99
2024-03-29T06:11:28.305Z,99.99
2024-03-29T06:12:28.214Z,99.99
2024-03-29T06:13:28.200Z,99.99
2024-03-29T06:14:28.190Z,99.99
2024-03-29T06:15:28.189Z,99.99
2024-03-29T06:16:28.185Z,99.99
2024-03-29T06:17:28.486Z,99.99
2024-03-29T06:18:28.152Z,99.99
2024-03-29T06:19:28.155Z,99.99
2024-03-29T06:20:28.122Z,99.99
2024-03-29T06:21:28.117Z,99.99
2024-03-29T06:22:28.104Z,99.99
2024-03-29T06:23:28.158Z,99.99
2024-03-29T06:24:28.359Z,99.99
2024-03-29T06:25:28.074Z,99.99
2024-03-29T06:26:28.080Z,99.99
2024-03-29T06:27:28.063Z,99.99
2024-03-29T06:28:28.043Z,99.99
2024-03-29T06:29:28.144Z,99.99
2024-03-29T06:30:28.029Z,99.99
2024-03-29T06:31:28.308Z,99.99
2024-03-29T06:32:28.003Z,99.99
2024-03-29T06:33:28.006Z,99.99
2024-03-29T06:34:27.976Z,99.99
2024-03-29T06:35:28.027Z,99.99
2024-03-29T06:36:27.958Z,99.99
2024-03-29T06:37:27.953Z,99.99
2024-03-29T06:38:28.223Z,99.99
2024-03-29T06:39:27.933Z,99.99
2024-03-29T06:40:27.920Z,99.99
2024-03-29T06:41:27.972Z,99.99
2024-03-29T06:42:27.957Z,99.99
2024-03-29T06:43:27.900Z,99.99
2024-03-29T06:44:27.879Z,99.99
2024-03-29T06:45:28.169Z,99.99
2024-03-29T06:46:27.849Z,99.99
2024-03-29T06:47:27.918Z,99.99
2024-03-29T06:48:27.853Z,99.99
2024-03-29T06:49:27.827Z,99.99
2024-03-29T06:50:27.809Z,99.99
2024-03-29T06:51:27.800Z,99.99
2024-03-29T06:52:28.071Z,99.99
2024-03-29T06:53:27.849Z,99.99
2024-03-29T06:54:27.775Z,99.99
2024-03-29T06:55:27.759Z,99.99
2024-03-29T06:56:27.753Z,99.99
2024-03-29T06:57:27.742Z,99.99
2024-03-29T06:58:27.750Z,99.99
2024-03-29T06:59:28.049Z,99.99
2024-03-29T07:00:27.712Z,99.99
2024-03-29T07:01:27.704Z,99.99
2024-03-29T07:02:27.703Z,99.99
2024-03-29T07:03:27.689Z,99.99
2024-03-29T07:04:27.671Z,99.99
2024-03-29T07:05:27.761Z,99.99
2024-03-29T07:06:28.779Z,99.99
2024-03-29T07:07:27.664Z,99.99
2024-03-29T07:08:27.618Z,99.99
2024-03-29T07:09:27.608Z,99.99
2024-03-29T07:10:28.282Z,99.99
2024-03-29T07:11:27.670Z,99.99
2024-03-29T07:12:27.584Z,99.99
2024-03-29T07:13:27.872Z,99.99
2024-03-29T07:14:27.562Z,99.99
2024-03-29T07:15:27.542Z,99.99
2024-03-29T07:16:27.543Z,99.99
2024-03-29T07:17:27.678Z,99.99
2024-03-29T07:18:27.529Z,99.99
2024-03-29T07:19:27.534Z,99.99
2024-03-29T07:20:27.774Z,99.99
2024-03-29T07:21:27.491Z,99.99
2024-03-29T07:22:35.794Z,99.99
2024-03-29T07:23:27.548Z,99.99
2024-03-29T07:24:27.456Z,99.99
2024-03-29T07:25:27.438Z,99.99
2024-03-29T07:26:27.440Z,99.99
2024-03-29T07:27:27.714Z,99.99
2024-03-29T07:28:27.416Z,99.99
2024-03-29T07:29:27.460Z,99.99
2024-03-29T07:30:27.407Z,99.99
2024-03-29T07:31:27.468Z,99.99
2024-03-29T07:32:27.377Z,99.99
2024-03-29T07:33:27.373Z,99.99
2024-03-29T07:34:27.648Z,99.99
2024-03-29T07:35:27.401Z,99.99
2024-03-29T07:36:27.334Z,99.99
2024-03-29T07:37:27.328Z,99.99
2024-03-29T07:38:27.316Z,99.99
2024-03-29T07:39:27.293Z,99.99
2024-03-29T07:40:27.301Z,99.99
2024-03-29T07:41:27.591Z,99.99
2024-03-29T07:42:27.303Z,99.99
2024-03-29T07:43:27.253Z,99.99
2024-03-29T07:44:27.251Z,99.99
2024-03-29T07:45:27.228Z,99.99
2024-03-29T07:46:27.224Z,99.99
2024-03-29T07:47:27.294Z,99.99
2024-03-29T07:48:27.514Z,99.99
2024-03-29T07:49:27.182Z,99.99
2024-03-29T07:50:27.175Z,99.99
2024-03-29T07:51:27.167Z,99.99
2024-03-29T07:52:27.162Z,99.99
2024-03-29T07:53:27.198Z,99.99
2024-03-29T07:54:27.134Z,99.99
2024-03-29T07:55:27.533Z,99.99
2024-03-29T07:56:27.132Z,99.99
2024-03-29T07:57:27.110Z,99.99
2024-03-29T07:58:27.094Z,99.99
2024-03-29T07:59:27.153Z,99.99
2024-03-29T08:00:27.099Z,99.99
2024-03-29T08:01:34.238Z,99.99
2024-03-29T08:02:28.754Z,99.99
2024-03-29T08:03:27.056Z,99.99
2024-03-29T08:04:27.028Z,99.99
2024-03-29T08:05:27.370Z,99.99
2024-03-29T08:06:27.011Z,99.99
2024-03-29T08:07:27.006Z,99.99
2024-03-29T08:08:27.291Z,99.99
2024-03-29T08:09:26.991Z,99.99
2024-03-29T08:10:26.970Z,99.99
2024-03-29T08:11:27.031Z,99.99
2024-03-29T08:12:26.947Z,99.99
2024-03-29T08:13:26.936Z,99.99
2024-03-29T08:14:26.941Z,99.99
2024-03-29T08:15:27.434Z,99.99
2024-03-29T08:16:28.518Z,99.99
2024-03-29T08:17:27.023Z,99.99
2024-03-29T08:18:26.905Z,99.99
2024-03-29T08:19:26.878Z,99.99
2024-03-29T08:20:27.141Z,99.99
2024-03-29T08:21:26.865Z,99.99
2024-03-29T08:22:26.893Z,99.99
2024-03-29T08:23:26.882Z,99.99
2024-03-29T08:24:26.856Z,99.99
2024-03-29T08:25:26.825Z,99.99
2024-03-29T08:26:26.811Z,99.99
2024-03-29T08:27:26.782Z,99.99
2024-03-29T08:28:26.804Z,99.99
2024-03-29T08:29:26.989Z,99.99
2024-03-29T08:30:26.780Z,99.99
2024-03-29T08:31:26.736Z,99.99
2024-03-29T08:32:26.739Z,99.99
2024-03-29T08:33:26.727Z,99.99
2024-03-29T08:34:26.728Z,99.99
2024-03-29T08:35:26.791Z,99.99
2024-03-29T08:36:28.132Z,99.99
2024-03-29T08:37:26.692Z,99.63
2024-03-29T08:38:26.676Z,98.87
2024-03-29T08:39:26.674Z,98.25
2024-03-29T08:40:26.657Z,98.42
2024-03-29T08:41:26.728Z,97.65
2024-03-29T08:42:26.639Z,97.04
2024-03-29T08:43:26.632Z,96.53
2024-03-29T08:44:26.919Z,96.22
2024-03-29T08:45:26.598Z,95.56
2024-03-29T08:46:26.610Z,95.05
2024-03-29T08:47:27.013Z,94.84
2024-03-29T08:48:26.583Z,96.01
2024-03-29T08:49:26.545Z,96.42
2024-03-29T08:50:26.571Z,96.01
2024-03-29T08:51:26.812Z,97.14
2024-03-29T08:52:26.537Z,97.55
2024-03-29T08:53:26.598Z,97.71
2024-03-29T08:54:26.499Z,96.79
2024-03-29T08:55:26.503Z,96.99
2024-03-29T08:56:26.474Z,96.28
2024-03-29T08:57:26.479Z,96.79
2024-03-29T08:58:26.763Z,96.38
2024-03-29T08:59:26.537Z,96.17
2024-03-29T09:00:26.462Z,94.89
2024-03-29T09:01:26.442Z,95.81
2024-03-29T09:02:26.429Z,95.09
2024-03-29T09:03:26.404Z,95.56
2024-03-29T09:04:26.392Z,96.28
2024-03-29T09:05:26.731Z,96.17
2024-03-29T09:06:26.418Z,96.89
2024-03-29T09:07:26.385Z,96.69
2024-03-29T09:08:26.359Z,95.97
2024-03-29T09:09:26.351Z,96.17
2024-03-29T09:10:26.331Z,96.58
2024-03-29T09:11:26.426Z,95.97
2024-03-29T09:12:26.606Z,95.76
2024-03-29T09:13:26.306Z,95.82
2024-03-29T09:14:26.310Z,96.44
2024-03-29T09:15:26.316Z,95.06
2024-03-29T09:16:26.284Z,94.92
2024-03-29T09:17:26.430Z,94.92
2024-03-29T09:18:26.538Z,94.20
2024-03-29T09:19:26.256Z,94.26
2024-03-29T09:20:26.239Z,94.36
2024-03-29T09:21:26.229Z,93.95
2024-03-29T09:22:26.221Z,93.91
2024-03-29T09:23:26.268Z,93.09
2024-03-29T09:24:26.201Z,93.40
2024-03-29T09:25:26.200Z,93.09
2024-03-29T09:26:26.164Z,93.33
2024-03-29T09:27:26.169Z,94.67
2024-03-29T09:28:26.197Z,94.46
2024-03-29T09:29:26.197Z,95.28
2024-03-29T09:30:26.127Z,95.07
2024-03-29T09:31:26.107Z,95.22
2024-03-29T09:32:26.113Z,95.84
2024-03-29T09:33:26.107Z,95.73
2024-03-29T09:34:26.075Z,96.04
2024-03-29T09:35:26.158Z,96.34
2024-03-29T09:36:26.357Z,96.66
2024-03-29T09:37:27.379Z,96.25
2024-03-29T09:38:26.059Z,96.34
2024-03-29T09:39:26.017Z,96.41
2024-03-29T09:40:26.036Z,96.30
2024-03-29T09:41:26.066Z,96.41
2024-03-29T09:42:25.986Z,95.85
2024-03-29T09:43:30.887Z,95.85
2024-03-29T09:44:25.990Z,95.34
2024-03-29T09:45:25.954Z,95.44
2024-03-29T09:46:25.961Z,95.85
2024-03-29T09:47:26.017Z,96.26
2024-03-29T09:48:25.938Z,96.46
2024-03-29T09:49:25.922Z,95.85
2024-03-29T09:50:26.184Z,95.54
2024-03-29T09:51:25.930Z,95.75
2024-03-29T09:52:25.893Z,95.85
2024-03-29T09:53:25.928Z,95.44
2024-03-29T09:54:25.861Z,95.95
2024-03-29T09:55:25.861Z,96.46
2024-03-29T09:56:25.842Z,96.67
2024-03-29T09:57:26.118Z,96.15
2024-03-29T09:58:25.900Z,95.95
2024-03-29T09:59:25.858Z,95.54
2024-03-29T10:00:25.829Z,95.95
2024-03-29T10:01:25.845Z,96.15
2024-03-29T10:02:25.781Z,95.34
2024-03-29T10:03:25.839Z,95.95
2024-03-29T10:04:26.086Z,96.36
2024-03-29T10:05:25.768Z,96.46
2024-03-29T10:06:25.739Z,96.56
2024-03-29T10:07:25.718Z,96.77
2024-03-29T10:08:25.709Z,97.08
2024-03-29T10:09:25.711Z,97.02
2024-03-29T10:10:25.692Z,97.63
2024-03-29T10:11:26.047Z,98.04
2024-03-29T10:12:25.682Z,98.75
2024-03-29T10:13:25.673Z,99.06
2024-03-29T10:14:25.670Z,99.52
2024-03-29T10:15:25.644Z,99.21
2024-03-29T10:16:25.641Z,99.99
2024-03-29T10:17:25.735Z,99.99
2024-03-29T10:18:27.291Z,99.99
2024-03-29T10:19:25.591Z,99.99
2024-03-29T10:20:25.615Z,99.99
2024-03-29T10:21:25.572Z,99.99
2024-03-29T10:22:25.564Z,99.99
2024-03-29T10:23:25.667Z,99.99
2024-03-29T10:24:25.542Z,99.99
2024-03-29T10:25:25.865Z,99.99
2024-03-29T10:26:25.533Z,99.99
2024-03-29T10:27:25.525Z,99.99
2024-03-29T10:28:25.515Z,99.99
2024-03-29T10:29:25.592Z,99.99
2024-03-29T10:30:25.475Z,99.99
2024-03-29T10:31:25.484Z,99.99
2024-03-29T10:32:25.804Z,99.99
2024-03-29T10:33:29.191Z,99.99
2024-03-29T10:34:25.461Z,99.99
2024-03-29T10:35:25.510Z,99.99
2024-03-29T10:36:25.428Z,99.99
2024-03-29T10:37:25.445Z,99.99
2024-03-29T10:38:25.390Z,99.99
2024-03-29T10:39:25.722Z,99.99
2024-03-29T10:40:25.384Z,99.99
2024-03-29T10:41:25.452Z,99.99
2024-03-29T10:42:25.353Z,99.99
2024-03-29T10:43:25.360Z,99.99
2024-03-29T10:44:25.348Z,99.99
2024-03-29T10:45:25.377Z,99.99
2024-03-29T10:46:25.602Z,99.99
2024-03-29T10:47:25.422Z,99.99
2024-03-29T10:48:25.298Z,99.99
2024-03-29T10:49:25.273Z,99.99
2024-03-29T10:50:25.281Z,99.99
2024-03-29T10:51:25.265Z,99.99
2024-03-29T10:52:25.250Z,99.99
2024-03-29T10:53:25.619Z,99.99
2024-03-29T10:54:25.222Z,99.99
2024-03-29T10:55:25.216Z,99.99
2024-03-29T10:56:25.202Z,99.99
2024-03-29T10:57:25.210Z,99.99
2024-03-29T10:58:25.185Z,99.99
2024-03-29T10:59:25.293Z,99.99
2024-03-29T11:00:25.447Z,99.99
2024-03-29T11:01:25.153Z,99.99
2024-03-29T11:02:25.197Z,99.99
2024-03-29T11:03:25.155Z,99.99
2024-03-29T11:04:25.115Z,99.99
2024-03-29T11:05:25.233Z,99.99
2024-03-29T11:06:25.098Z,99.99
2024-03-29T11:07:25.384Z,99.99
2024-03-29T11:08:25.118Z,99.99
2024-03-29T11:09:25.086Z,99.99
2024-03-29T11:10:25.060Z,99.99
2024-03-29T11:11:25.115Z,99.99
2024-03-29T11:12:25.046Z,99.99
2024-03-29T11:13:25.018Z,99.99
2024-03-29T11:14:25.360Z,99.99
2024-03-29T11:15:25.011Z,99.99
2024-03-29T11:16:25.014Z,99.99
2024-03-29T11:17:25.103Z,99.99
2024-03-29T11:18:24.962Z,99.99
2024-03-29T11:19:24.974Z,99.99
2024-03-29T11:20:24.977Z,99.99
2024-03-29T11:21:25.225Z,99.99
2024-03-29T11:22:24.925Z,99.99
2024-03-29T11:23:25.060Z,99.99
2024-03-29T11:24:24.897Z,99.99
2024-03-29T11:25:24.891Z,99.99
2024-03-29T11:26:24.924Z,99.99
2024-03-29T11:27:24.886Z,99.99
2024-03-29T11:28:25.166Z,99.39
2024-03-29T11:29:24.926Z,98.11
2024-03-29T11:30:24.852Z,94.97
2024-03-29T11:31:24.846Z,92.48
2024-03-29T11:32:24.846Z,91.46
2024-03-29T11:33:24.816Z,91.27
2024-03-29T11:34:24.798Z,89.00
2024-03-29T11:35:25.182Z,88.79
2024-03-29T11:36:24.780Z,88.42
2024-03-29T11:37:24.775Z,89.07
2024-03-29T11:38:24.847Z,89.79
2024-03-29T11:39:24.775Z,90.20
2024-03-29T11:40:24.742Z,89.00
2024-03-29T11:41:24.863Z,87.29
2024-03-29T11:42:24.995Z,86.57
2024-03-29T11:43:24.706Z,86.00
2024-03-29T11:44:24.769Z,86.68
2024-03-29T11:45:24.692Z,86.68
2024-03-29T11:46:24.667Z,86.57
2024-03-29T11:47:24.746Z,86.51
2024-03-29T11:48:24.658Z,86.88
2024-03-29T11:49:24.938Z,87.45
2024-03-29T11:50:24.672Z,85.21
2024-03-29T11:51:24.615Z,84.60
2024-03-29T11:52:24.601Z,83.89
2024-03-29T11:53:24.687Z,85.52
2024-03-29T11:54:26.397Z,84.91
2024-03-29T11:55:24.577Z,84.80
2024-03-29T11:56:24.600Z,83.01
2024-03-29T11:57:24.596Z,84.84
2024-03-29T11:58:24.543Z,85.05
2024-03-29T11:59:24.658Z,83.36
2024-03-29T12:00:24.542Z,84.78
2024-03-29T12:01:24.508Z,83.73
2024-03-29T12:02:24.807Z,84.13
2024-03-29T12:03:24.490Z,84.54
2024-03-29T12:04:24.492Z,83.67
2024-03-29T12:05:24.586Z,82.85
2024-03-29T12:06:24.467Z,82.68
2024-03-29T12:07:24.462Z,83.50
2024-03-29T12:08:24.457Z,84.62
2024-03-29T12:09:24.435Z,83.74
2024-03-29T12:10:24.420Z,83.54
2024-03-29T12:11:25.885Z,84.19
2024-03-29T12:12:24.407Z,84.59
2024-03-29T12:13:24.387Z,85.41
2024-03-29T12:14:24.416Z,85.41
2024-03-29T12:15:24.684Z,85.82
2024-03-29T12:16:24.340Z,86.13
2024-03-29T12:17:24.400Z,85.92
2024-03-29T12:18:24.331Z,86.22
2024-03-29T12:19:24.369Z,86.22
2024-03-29T12:20:24.394Z,86.63
2024-03-29T12:21:24.305Z,86.19
2024-03-29T12:22:24.293Z,84.42
2024-03-29T12:23:24.478Z,83.62
2024-03-29T12:24:24.272Z,82.00
2024-03-29T12:25:24.250Z,81.66
2024-03-29T12:26:24.259Z,82.20
2024-03-29T12:27:24.497Z,82.81
2024-03-29T12:28:24.214Z,82.95
2024-03-29T12:29:24.393Z,82.95
2024-03-29T12:30:24.203Z,82.85
2024-03-29T12:31:24.183Z,83.46
2024-03-29T12:32:24.228Z,83.87
2024-03-29T12:33:24.161Z,83.67
2024-03-29T12:34:24.150Z,83.56
2024-03-29T12:35:24.214Z,84.28
2024-03-29T12:36:24.125Z,84.21
2024-03-29T12:37:24.118Z,84.72
2024-03-29T12:38:24.127Z,85.23
2024-03-29T12:39:24.394Z,85.74
2024-03-29T12:40:24.098Z,87.06
2024-03-29T12:41:24.268Z,86.90
2024-03-29T12:42:24.063Z,87.81
2024-03-29T12:43:24.088Z,87.96
2024-03-29T12:44:24.049Z,88.26
2024-03-29T12:45:24.060Z,88.36
2024-03-29T12:46:24.397Z,87.38
2024-03-29T12:47:24.070Z,87.59
2024-03-29T12:48:24.026Z,88.40
2024-03-29T12:49:23.995Z,88.61
2024-03-29T12:50:24.004Z,89.22
2024-03-29T12:51:23.974Z,89.12
2024-03-29T12:52:23.957Z,90.03
2024-03-29T12:53:24.305Z,89.94